Time;durP1;ratioP1;P1;durP2;ratioP2;P2;SDS_P1;SDS_P2;PMS_P1;PMS_P2;Temp;Humidity;BMP_temperature;BMP_pressure;BME280_temperature;BME280_humidity;BME280_pressure;Samples;Min_cycle;Max_cycle;Signal;HPM_P1;HPM_P2
2024/03/08 00:01:45;;;;;;;44.50;29.50;;;;;;;-2.99;71.83;100476.39;106700;1251;73762;-81
2024/03/08 00:04:11;;;;;;;44.80;28.80;;;;;;;-3.03;71.87;100479.19;107238;1251;70366;-80
2024/03/08 00:06:39;;;;;;;42.10;26.70;;;;;;;-3.08;71.99;100475.05;106610;1251;72528;-82
2024/03/08 00:09:07;;;;;;;40.30;27.30;;;;;;;-3.12;72.01;100471.22;106802;1251;60425;-80
2024/03/08 00:11:34;;;;;;;37.80;24.60;;;;;;;-3.14;72.28;100473.21;107118;1252;60129;-78
2024/03/08 00:14:01;;;;;;;41.20;26.20;;;;;;;-3.09;72.15;100469.20;106979;1251;72738;-79
2024/03/08 00:16:28;;;;;;;46.20;25.80;;;;;;;-3.01;72.09;100465.55;106822;1253;68874;-80
2024/03/08 00:18:55;;;;;;;42.70;27.10;;;;;;;-2.98;71.89;100464.94;108343;1253;72349;-82
2024/03/08 00:21:22;;;;;;;39.40;25.70;;;;;;;-3.01;71.96;100463.15;106751;1254;60050;-79
2024/03/08 00:23:49;;;;;;;42.20;27.00;;;;;;;-3.04;71.92;100467.09;105931;1252;60355;-82
2024/03/08 00:26:16;;;;;;;41.70;26.50;;;;;;;-3.09;72.04;100462.27;106149;1253;74414;-83
2024/03/08 00:28:43;;;;;;;44.10;28.10;;;;;;;-3.13;72.08;100460.17;107271;1251;69295;-79
2024/03/08 00:31:10;;;;;;;44.30;27.90;;;;;;;-3.15;72.20;100458.00;109090;1251;70276;-80
2024/03/08 00:33:37;;;;;;;42.70;27.20;;;;;;;-3.15;72.29;100455.08;108238;1253;59351;-77
2024/03/08 00:36:04;;;;;;;44.70;25.80;;;;;;;-3.07;72.11;100450.76;106256;1251;60432;-81
2024/03/08 00:38:31;;;;;;;36.40;23.90;;;;;;;-2.97;71.87;100446.86;106275;1252;72762;-79
2024/03/08 00:40:58;;;;;;;39.10;24.40;;;;;;;-2.96;71.98;100444.92;106192;1252;70067;-82
2024/03/08 00:43:24;;;;;;;39.50;25.10;;;;;;;-3.01;71.85;100442.88;106402;1255;60512;-82
2024/03/08 00:45:51;;;;;;;43.40;26.50;;;;;;;-3.05;72.12;100438.02;106404;1251;60513;-82
2024/03/08 00:48:18;;;;;;;40.50;26.00;;;;;;;-3.10;72.14;100438.04;108091;1251;60357;-79
2024/03/08 00:50:45;;;;;;;40.00;25.50;;;;;;;-3.13;72.22;100434.19;109176;1256;72333;-81
2024/03/08 00:53:12;;;;;;;39.00;25.90;;;;;;;-3.15;72.06;100434.61;107749;1251;69094;-79
2024/03/08 00:55:39;;;;;;;46.10;26.30;;;;;;;-3.15;72.21;100436.67;106623;1256;71427;-80
2024/03/08 00:58:06;;;;;;;38.90;24.10;;;;;;;-3.07;71.97;100433.76;106459;1253;60801;-80
2024/03/08 01:00:33;;;;;;;39.60;24.20;;;;;;;-2.99;71.94;100437.39;106061;1253;60569;-79
2024/03/08 01:02:59;;;;;;;44.10;24.70;;;;;;;-3.00;71.92;100436.91;105945;1256;74340;-79
2024/03/08 01:05:26;;;;;;;40.60;26.50;;;;;;;-3.05;71.97;100433.16;106227;1253;71112;-80
2024/03/08 01:07:53;;;;;;;41.60;26.60;;;;;;;-3.11;72.03;100428.56;106615;1251;73294;-78
2024/03/08 01:10:20;;;;;;;40.70;25.70;;;;;;;-3.16;72.09;100430.52;106330;1253;60579;-79
2024/03/08 01:12:46;;;;;;;43.90;27.50;;;;;;;-3.21;72.27;100430.70;106421;1256;60366;-80
2024/03/08 01:15:13;;;;;;;43.60;25.50;;;;;;;-3.24;72.38;100427.04;106329;1251;71514;-79
2024/03/08 01:17:40;;;;;;;39.10;24.60;;;;;;;-3.25;72.32;100426.55;106724;1251;70286;-78
2024/03/08 01:20:10;;;;;;;37.90;24.70;;;;;;;-3.17;72.30;100426.02;107189;1251;71650;-78
2024/03/08 01:22:38;;;;;;;37.20;24.50;;;;;;;-3.10;72.08;100422.09;106412;1251;60391;-78
2024/03/08 01:25:05;;;;;;;39.60;25.90;;;;;;;-3.11;72.18;100424.06;106147;1256;60419;-79
2024/03/08 01:27:32;;;;;;;39.90;25.40;;;;;;;-3.16;72.36;100420.95;106034;1253;72901;-79
2024/03/08 01:29:59;;;;;;;38.60;25.10;;;;;;;-3.19;72.32;100420.05;106255;1256;70415;-78
2024/03/08 01:32:26;;;;;;;41.00;26.60;;;;;;;-3.22;72.32;100418.27;105658;1256;71636;-79
2024/03/08 01:34:52;;;;;;;43.10;26.90;;;;;;;-3.26;72.54;100418.44;106144;1251;61008;-78
2024/03/08 01:37:19;;;;;;;41.40;25.30;;;;;;;-3.29;72.54;100417.38;106047;1253;60390;-80
2024/03/08 01:39:46;;;;;;;40.10;26.40;;;;;;;-3.31;72.55;100419.33;106095;1251;73701;-79
2024/03/08 01:42:15;;;;;;;43.70;25.70;;;;;;;-3.24;72.46;100416.64;107332;1251;69190;-77
2024/03/08 01:44:43;;;;;;;40.30;25.00;;;;;;;-3.20;72.43;100414.03;109260;1251;70296;-77
2024/03/08 01:47:13;;;;;;;38.70;26.40;;;;;;;-3.23;72.49;100411.73;108431;1252;60469;-80
2024/03/08 01:49:40;;;;;;;43.90;27.80;;;;;;;-3.27;72.66;100411.39;106985;1256;60752;-80
2024/03/08 01:52:07;;;;;;;43.60;28.20;;;;;;;-3.31;72.59;100407.07;107782;1251;74406;-79
2024/03/08 01:54:34;;;;;;;46.90;27.70;;;;;;;-3.34;72.73;100402.33;108346;1251;68866;-80
2024/03/08 01:57:01;;;;;;;45.00;26.80;;;;;;;-3.38;72.76;100406.09;106167;1252;72467;-81
2024/03/08 01:59:28;;;;;;;40.30;26.10;;;;;;;-3.33;72.83;100406.43;106167;1251;61918;-77
2024/03/08 02:01:55;;;;;;;41.60;26.20;;;;;;;-3.27;72.69;100400.11;106119;1253;60434;-79
2024/03/08 02:04:22;;;;;;;41.20;25.40;;;;;;;-3.28;72.68;100400.48;105965;1253;74338;-79
2024/03/08 02:06:49;;;;;;;39.00;24.70;;;;;;;-3.31;72.83;100398.38;106274;1256;70463;-80
2024/03/08 02:09:17;;;;;;;42.40;26.90;;;;;;;-3.35;72.86;100395.60;106587;1253;72771;-79
2024/03/08 02:11:43;;;;;;;39.70;26.40;;;;;;;-3.39;73.01;100393.17;106684;1251;60269;-77
2024/03/08 02:14:11;;;;;;;38.50;24.90;;;;;;;-3.42;73.08;100394.69;106398;1252;60456;-79
2024/03/08 02:16:39;;;;;;;42.20;26.10;;;;;;;-3.45;73.09;100392.36;105939;1255;72380;-78
2024/03/08 02:19:09;;;;;;;42.40;26.60;;;;;;;-3.45;73.26;100390.98;106112;1251;71221;-79
2024/03/08 02:21:37;;;;;;;44.70;27.50;;;;;;;-3.39;73.06;100395.05;106295;1256;72628;-80
2024/03/08 02:24:05;;;;;;;40.60;24.40;;;;;;;-3.36;73.04;100391.64;106323;1251;60431;-81
2024/03/08 02:26:31;;;;;;;37.30;24.90;;;;;;;-3.41;73.08;100392.70;107251;1251;60649;-80
2024/03/08 02:28:58;;;;;;;39.20;26.20;;;;;;;-3.46;73.39;100389.98;107734;1256;73235;-80
2024/03/08 02:31:25;;;;;;;42.40;27.20;;;;;;;-3.50;73.35;100387.39;106320;1251;70561;-79
2024/03/08 02:33:52;;;;;;;45.90;27.50;;;;;;;-3.54;73.43;100384.59;106525;1256;71639;-80
2024/03/08 02:36:19;;;;;;;50.10;27.50;;;;;;;-3.57;73.56;100384.20;107252;1251;60455;-82
2024/03/08 02:38:46;;;;;;;39.40;25.00;;;;;;;-3.51;73.56;100381.36;109516;1253;58717;-80
2024/03/08 02:41:12;;;;;;;38.00;23.10;;;;;;;-3.42;73.29;100383.23;108988;1253;72392;-79
2024/03/08 02:43:39;;;;;;;52.40;30.90;;;;;;;-3.40;73.41;100377.28;107081;1256;70217;-81
2024/03/08 02:46:06;;;;;;;40.50;24.40;;;;;;;-3.45;73.40;100377.30;106989;1253;72061;-80
2024/03/08 02:48:33;;;;;;;39.00;25.30;;;;;;;-3.49;73.61;100373.85;106275;1251;60280;-78
2024/03/08 02:51:01;;;;;;;37.00;23.50;;;;;;;-3.51;73.60;100374.11;105931;1251;60441;-80
2024/03/08 02:53:28;;;;;;;37.30;24.30;;;;;;;-3.57;73.87;100374.30;106173;1251;73541;-78
2024/03/08 02:55:55;;;;;;;40.90;25.20;;;;;;;-3.60;73.96;100370.81;106149;1251;70369;-80
2024/03/08 02:58:22;;;;;;;38.60;22.80;;;;;;;-3.53;73.72;100368.11;106240;1253;71469;-79
2024/03/08 03:00:48;;;;;;;37.20;21.60;;;;;;;-3.45;73.63;100369.50;106423;1251;60823;-78
2024/03/08 03:03:15;;;;;;;40.10;22.90;;;;;;;-3.47;73.66;100366.45;106605;1251;60330;-77
2024/03/08 03:05:42;;;;;;;39.90;25.00;;;;;;;-3.51;74.00;100365.61;106387;1251;72575;-77
2024/03/08 03:08:16;;;;;;;51.80;29.30;;;;;;;-3.55;74.15;100362.29;105989;1254;68920;-78
2024/03/08 03:10:43;;;;;;;58.30;31.80;;;;;;;-3.57;74.33;100361.02;106152;1256;71370;-79
2024/03/08 03:13:10;;;;;;;63.00;34.70;;;;;;;-3.62;74.21;100361.89;106184;1254;60483;-79
2024/03/08 03:15:36;;;;;;;58.80;32.80;;;;;;;-3.66;74.28;100358.93;106106;1256;60254;-79
2024/03/08 03:18:03;;;;;;;60.10;31.80;;;;;;;-3.62;74.24;100359.83;106198;1251;74062;-79
2024/03/08 03:20:39;;;;;;;47.70;28.30;;;;;;;-3.52;74.16;100357.17;106656;1251;70470;-81
2024/03/08 03:23:08;;;;;;;39.00;25.70;;;;;;;-3.52;74.18;100354.23;106496;1256;71331;-81
2024/03/08 03:25:35;;;;;;;39.10;25.60;;;;;;;-3.56;74.36;100355.61;106582;1251;60482;-80
2024/03/08 03:28:02;;;;;;;44.00;27.50;;;;;;;-3.63;74.47;100345.98;108779;1251;60290;-81
2024/03/08 03:30:35;;;;;;;40.50;25.80;;;;;;;-3.66;74.86;100345.95;107888;1251;71332;-79
2024/03/08 03:33:06;;;;;;;42.90;25.70;;;;;;;-3.69;74.84;100348.16;108939;1251;68908;-78
2024/03/08 03:35:36;;;;;;;34.30;22.80;;;;;;;-3.71;74.76;100348.21;108999;1251;71235;-80
2024/03/08 03:38:08;;;;;;;34.40;21.90;;;;;;;-3.63;74.72;100349.11;106773;1251;62029;-81
2024/03/08 03:40:38;;;;;;;36.30;23.30;;;;;;;-3.51;74.66;100353.31;107390;1251;60530;-79
2024/03/08 03:43:05;;;;;;;38.00;23.10;;;;;;;-3.51;74.66;100353.15;107324;1251;72459;-80
2024/03/08 03:45:34;;;;;;;36.10;23.30;;;;;;;-3.57;74.82;100348.68;106177;1252;68948;-78
2024/03/08 03:48:03;;;;;;;36.60;24.40;;;;;;;-3.61;75.09;100349.21;106397;1251;72519;-82
2024/03/08 03:50:30;;;;;;;43.90;27.70;;;;;;;-3.66;75.13;100344.56;106357;1256;60550;-79
2024/03/08 03:52:57;;;;;;;38.70;23.20;;;;;;;-3.70;75.17;100346.47;106159;1256;60431;-82
2024/03/08 03:55:24;;;;;;;38.40;24.10;;;;;;;-3.71;75.21;100345.10;106042;1253;72709;-80
2024/03/08 03:57:51;;;;;;;39.60;25.40;;;;;;;-3.64;75.03;100345.17;106630;1256;68878;-81
2024/03/08 04:00:18;;;;;;;44.40;26.10;;;;;;;-3.64;75.03;100343.25;107144;1256;72436;-81
2024/03/08 04:02:46;;;;;;;40.40;25.90;;;;;;;-3.69;75.35;100341.59;107322;1251;60438;-82
2024/03/08 04:05:13;;;;;;;38.90;23.30;;;;;;;-3.75;75.63;100342.35;106961;1253;60492;-78
2024/03/08 04:07:40;;;;;;;50.40;29.50;;;;;;;-3.80;75.74;100338.70;106955;1251;72685;-81
2024/03/08 04:10:08;;;;;;;44.20;27.40;;;;;;;-3.82;75.86;100339.84;106247;1257;70194;-81
2024/03/08 04:12:35;;;;;;;37.30;24.00;;;;;;;-3.76;75.94;100341.70;106770;1251;71103;-81
2024/03/08 04:15:02;;;;;;;37.30;24.70;;;;;;;-3.68;75.72;100338.60;106328;1253;60508;-79
2024/03/08 04:17:29;;;;;;;34.80;25.20;;;;;;;-3.70;75.76;100335.04;106547;1251;60504;-80
2024/03/08 04:19:56;;;;;;;37.50;24.60;;;;;;;-3.74;76.10;100330.36;106385;1256;72521;-80
2024/03/08 04:22:24;;;;;;;38.00;25.30;;;;;;;-3.79;76.27;100330.56;106652;1253;68812;-80
2024/03/08 04:24:51;;;;;;;37.90;23.60;;;;;;;-3.84;76.51;100329.36;106256;1253;72377;-81
2024/03/08 04:27:18;;;;;;;37.40;24.20;;;;;;;-3.84;76.58;100328.85;108825;1251;61821;-81
2024/03/08 04:29:49;;;;;;;35.90;23.00;;;;;;;-3.74;76.50;100328.64;109236;1253;58870;-80
2024/03/08 04:32:17;;;;;;;35.00;22.20;;;;;;;-3.72;76.43;100324.25;107693;1252;72539;-82
2024/03/08 04:34:44;;;;;;;38.40;23.90;;;;;;;-3.77;76.57;100319.38;107652;1251;70797;-79
2024/03/08 04:37:13;;;;;;;39.30;24.90;;;;;;;-3.81;76.68;100323.86;108113;1252;71222;-79
2024/03/08 04:39:41;;;;;;;38.60;25.30;;;;;;;-3.83;76.79;100326.38;108319;1252;58135;-79
2024/03/08 04:42:09;;;;;;;41.50;27.00;;;;;;;-3.82;76.89;100323.89;107111;1256;60168;-82
2024/03/08 04:44:39;;;;;;;49.20;30.10;;;;;;;-3.72;76.73;100328.89;106206;1251;72729;-83
2024/03/08 04:47:07;;;;;;;43.10;30.00;;;;;;;-3.70;76.76;100322.57;106139;1251;70135;-82
2024/03/08 04:49:34;;;;;;;42.20;29.10;;;;;;;-3.75;76.78;100320.73;106339;1251;72658;-80
2024/03/08 04:52:04;;;;;;;41.00;28.70;;;;;;;-3.80;77.05;100321.77;106576;1251;60861;-79
2024/03/08 04:54:31;;;;;;;44.70;28.50;;;;;;;-3.83;77.14;100322.08;106521;1253;60486;-82
2024/03/08 04:56:59;;;;;;;46.70;29.30;;;;;;;-3.85;77.21;100322.14;106337;1253;72520;-83
2024/03/08 04:59:27;;;;;;;43.50;28.80;;;;;;;-3.77;77.21;100321.84;106360;1251;69323;-80
2024/03/08 05:01:54;;;;;;;40.80;28.10;;;;;;;-3.72;77.13;100323.86;107815;1251;72425;-80
2024/03/08 05:04:21;;;;;;;41.10;27.20;;;;;;;-3.72;77.18;100325.26;107127;1251;60318;-80
2024/03/08 05:06:48;;;;;;;49.40;30.50;;;;;;;-3.73;77.28;100327.04;106297;1251;60416;-79
2024/03/08 05:09:15;;;;;;;44.10;27.50;;;;;;;-3.73;77.42;100327.22;106062;1257;72635;-81
2024/03/08 05:11:43;;;;;;;45.50;28.40;;;;;;;-3.73;77.53;100327.90;106458;1256;68493;-81
2024/03/08 05:14:12;;;;;;;39.60;26.00;;;;;;;-3.64;77.43;100332.20;106628;1251;72739;-81
2024/03/08 05:16:40;;;;;;;42.40;25.90;;;;;;;-3.50;77.31;100333.35;106642;1251;60422;-79
2024/03/08 05:19:07;;;;;;;38.40;24.70;;;;;;;-3.44;77.43;100332.59;106701;1251;60416;-78
2024/03/08 05:21:34;;;;;;;38.00;25.80;;;;;;;-3.41;77.47;100332.27;108263;1252;72522;-79
2024/03/08 05:24:00;;;;;;;41.70;25.20;;;;;;;-3.37;77.27;100334.20;109157;1251;69509;-79
2024/03/08 05:26:28;;;;;;;42.50;27.00;;;;;;;-3.32;77.41;100337.63;108639;1252;71324;-80
2024/03/08 05:28:58;;;;;;;42.20;26.40;;;;;;;-3.26;77.18;100334.77;107774;1251;60307;-81
2024/03/08 05:31:25;;;;;;;37.30;25.20;;;;;;;-3.11;76.84;100332.38;106729;1253;60377;-81
2024/03/08 05:33:54;;;;;;;40.60;26.10;;;;;;;-3.02;76.55;100332.88;106140;1256;73720;-80
2024/03/08 05:36:21;;;;;;;41.70;25.70;;;;;;;-3.04;76.60;100328.95;107301;1251;70317;-79
2024/03/08 05:38:50;;;;;;;39.40;26.50;;;;;;;-3.03;76.62;100330.27;108815;1252;71366;-78
2024/03/08 05:41:18;;;;;;;37.40;25.30;;;;;;;-2.99;76.54;100325.94;107597;1253;216622;-80
2024/03/08 05:45:57;;;;;;;40.90;25.30;;;;;;;-2.76;76.28;100317.83;104324;1292;599333;-79
2024/03/08 05:48:25;;;;;;;40.40;26.80;;;;;;;-2.65;76.06;100313.70;106205;1267;59395;-79
2024/03/08 05:50:52;;;;;;;35.40;23.30;;;;;;;-2.59;75.93;100316.55;105412;1267;59963;-79
2024/03/08 05:53:20;;;;;;;40.00;26.20;;;;;;;-2.53;75.63;100315.62;105683;1267;71112;-79
2024/03/08 05:55:47;;;;;;;39.90;26.70;;;;;;;-2.52;75.45;100317.61;105819;1269;69022;-79
2024/03/08 05:58:16;;;;;;;44.90;26.90;;;;;;;-2.48;75.43;100310.48;106583;1259;70660;-80
2024/03/08 06:00:46;;;;;;;34.10;22.90;;;;;;;-2.35;75.18;100313.70;106488;1257;61249;-77
2024/03/08 06:03:18;;;;;;;38.60;25.20;;;;;;;-2.18;74.98;100311.31;106069;1258;60100;-75
2024/03/08 06:05:45;;;;;;;39.20;26.00;;;;;;;-2.10;74.84;100313.24;106074;1256;72321;-76
2024/03/08 06:08:14;;;;;;;36.80;25.20;;;;;;;-2.07;74.58;100317.06;105878;1254;70306;-74
2024/03/08 06:10:42;;;;;;;46.40;27.60;;;;;;;-2.06;74.16;100313.91;106055;1254;72426;-75
2024/03/08 06:13:12;;;;;;;41.00;27.30;;;;;;;-2.04;74.12;100317.80;106047;1255;59730;-76
2024/03/08 06:15:39;;;;;;;43.80;26.30;;;;;;;-2.03;73.86;100318.27;107291;1260;59372;-75
2024/03/08 06:18:10;;;;;;;39.90;25.80;;;;;;;-1.99;73.87;100316.54;107759;1256;73020;-76
2024/03/08 06:20:39;;;;;;;42.60;27.30;;;;;;;-1.82;73.74;100320.54;107269;1257;68875;-77
2024/03/08 06:23:06;;;;;;;41.70;27.60;;;;;;;-1.66;73.52;100317.52;106192;1257;72433;-77
2024/03/08 06:25:34;;;;;;;40.50;26.40;;;;;;;-1.60;73.36;100319.98;106142;1255;59714;-74
2024/03/08 06:28:03;;;;;;;42.00;28.80;;;;;;;-1.52;73.05;100317.02;106090;1260;59958;-74
2024/03/08 06:30:31;;;;;;;42.70;28.10;;;;;;;-1.48;73.04;100317.64;105799;1260;73132;-75
2024/03/08 06:32:58;;;;;;;40.00;27.30;;;;;;;-1.45;72.61;100316.10;105932;1260;70340;-75
2024/03/08 06:35:26;;;;;;;49.70;29.90;;;;;;;-1.43;72.58;100316.20;105817;1257;71139;-75
2024/03/08 06:37:53;;;;;;;41.50;24.70;;;;;;;-1.40;72.43;100316.71;106138;1254;59558;-75
2024/03/08 06:40:21;;;;;;;39.20;24.50;;;;;;;-1.32;72.29;100315.64;105790;1262;59553;-75
2024/03/08 06:42:48;;;;;;;40.20;25.90;;;;;;;-1.14;71.91;100316.13;105487;1257;70785;-74
2024/03/08 06:45:20;;;;;;;36.10;24.90;;;;;;;-1.05;71.41;100311.84;105484;1256;70840;-75
2024/03/08 06:47:48;;;;;;;41.40;26.80;;;;;;;-1.02;71.38;100308.67;105807;1260;70600;-76
2024/03/08 06:50:15;;;;;;;40.60;26.80;;;;;;;-1.00;71.21;100305.64;105786;1257;59611;-74
2024/03/08 06:52:44;;;;;;;43.90;28.80;;;;;;;-0.96;70.89;100304.41;105505;1262;59618;-76
2024/03/08 06:55:12;;;;;;;40.30;27.10;;;;;;;-0.92;70.97;100304.38;105758;1257;71782;-75
2024/03/08 06:57:40;;;;;;;39.00;27.50;;;;;;;-0.84;70.97;100304.81;105604;1257;72245;-74
2024/03/08 07:00:13;;;;;;;41.40;27.10;;;;;;;-0.76;70.24;100304.93;105736;1257;71758;-75
2024/03/08 07:02:41;;;;;;;41.20;25.90;;;;;;;-0.71;70.13;100303.56;106004;1254;59737;-75
2024/03/08 07:05:10;;;;;;;38.80;26.40;;;;;;;-0.64;69.81;100298.71;105687;1262;60041;-75
2024/03/08 07:07:38;;;;;;;37.20;24.20;;;;;;;-0.57;69.70;100295.36;105541;1254;75128;-76
2024/03/08 07:10:10;;;;;;;34.60;22.60;;;;;;;-0.39;69.22;100293.16;106499;1254;69548;-73
2024/03/08 07:12:38;;;;;;;34.40;22.90;;;;;;;-0.16;68.24;100293.98;107944;1257;71958;-75
2024/03/08 07:15:06;;;;;;;35.30;23.30;;;;;;;-0.07;67.56;100297.16;106964;1258;60304;-75
2024/03/08 07:17:35;;;;;;;36.40;23.70;;;;;;;-0.03;67.19;100293.95;105856;1259;60084;-75
2024/03/08 07:20:07;;;;;;;33.90;22.30;;;;;;;0.01;67.02;100293.91;105984;1254;71792;-77
2024/03/08 07:22:36;;;;;;;35.00;22.80;;;;;;;0.06;67.02;100293.79;106293;1259;69278;-76
2024/03/08 07:27:36;;;;;;;31.50;21.90;;;;;;;0.23;66.47;100291.24;105692;1260;60191;-75
2024/03/08 07:30:04;;;;;;;32.80;22.10;;;;;;;0.29;65.99;100286.72;105676;1254;59666;-75
2024/03/08 07:32:36;;;;;;;34.60;22.70;;;;;;;0.35;65.65;100288.45;105748;1259;71880;-75
2024/03/08 07:35:04;;;;;;;35.90;24.00;;;;;;;0.45;65.87;100288.59;105859;1254;71118;-74
2024/03/08 07:37:33;;;;;;;35.50;23.70;;;;;;;0.55;65.39;100291.98;105909;1254;74831;-76
2024/03/08 07:40:00;;;;;;;37.00;24.30;;;;;;;0.66;64.96;100295.21;105678;1254;60301;-75
2024/03/08 07:42:28;;;;;;;36.00;25.20;;;;;;;0.75;64.47;100290.63;105909;1254;60460;-76
2024/03/08 07:44:56;;;;;;;36.50;24.90;;;;;;;0.85;64.27;100287.95;106009;1256;75229;-75
2024/03/08 07:47:24;;;;;;;40.60;24.80;;;;;;;0.94;63.88;100282.83;105864;1260;71413;-75
2024/03/08 07:49:52;;;;;;;35.50;23.90;;;;;;;1.05;63.34;100281.17;105911;1259;71394;-73
2024/03/08 07:52:21;;;;;;;36.80;24.70;;;;;;;1.14;62.94;100277.13;106115;1253;59781;-74
2024/03/08 07:54:49;;;;;;;32.50;22.60;;;;;;;1.25;63.20;100271.55;107994;1254;60942;-77
2024/03/08 07:57:17;;;;;;;36.40;22.20;;;;;;;1.41;62.84;100269.83;108815;1254;72739;-74
2024/03/08 07:59:45;;;;;;;31.00;20.60;;;;;;;1.61;62.30;100266.48;108876;1252;70373;-76
2024/03/08 08:02:13;;;;;;;31.70;20.60;;;;;;;1.81;61.61;100270.96;108834;1254;70548;-75
2024/03/08 08:04:41;;;;;;;29.90;20.60;;;;;;;1.99;61.08;100269.42;109109;1254;59845;-76
2024/03/08 08:07:09;;;;;;;30.20;21.00;;;;;;;2.19;60.72;100269.71;109196;1253;58453;-75
2024/03/08 08:09:38;;;;;;;30.50;19.50;;;;;;;2.39;59.36;100270.67;109128;1254;75107;-76
2024/03/08 08:12:07;;;;;;;32.90;20.70;;;;;;;2.53;59.07;100267.30;109229;1254;68824;-76
2024/03/08 08:14:34;;;;;;;32.10;21.60;;;;;;;2.66;58.15;100260.48;109305;1254;71524;-77
2024/03/08 08:17:04;;;;;;;30.40;20.10;;;;;;;2.75;57.47;100259.86;109145;1253;59124;-76
2024/03/08 08:19:33;;;;;;;27.70;18.80;;;;;;;2.84;57.50;100256.80;109212;1254;59204;-76
2024/03/08 08:22:02;;;;;;;26.00;18.90;;;;;;;3.00;57.75;100251.31;109251;1253;71859;-76
2024/03/08 08:24:30;;;;;;;26.40;17.10;;;;;;;3.22;57.11;100255.52;109100;1253;71505;-75
2024/03/08 08:26:58;;;;;;;24.70;17.30;;;;;;;3.46;56.47;100257.90;109247;1254;73268;-76
2024/03/08 08:29:27;;;;;;;23.40;17.10;;;;;;;3.65;55.71;100255.64;108887;1254;57979;-76
2024/03/08 08:31:54;;;;;;;26.00;18.50;;;;;;;3.80;54.36;100246.85;109267;1254;61103;-76
2024/03/08 08:34:23;;;;;;;25.50;18.00;;;;;;;3.92;54.09;100243.52;109254;1254;71960;-75
2024/03/08 08:36:52;;;;;;;21.60;15.60;;;;;;;4.06;53.11;100242.14;109394;1254;69402;-76
2024/03/08 08:39:22;;;;;;;22.80;14.80;;;;;;;4.18;51.69;100243.88;109350;1254;70831;-76
2024/03/08 08:41:50;;;;;;;21.20;15.10;;;;;;;4.25;51.51;100246.51;109379;1253;60154;-77
2024/03/08 08:44:18;;;;;;;23.10;14.60;;;;;;;4.32;51.11;100251.23;109350;1254;58924;-74
2024/03/08 08:46:46;;;;;;;20.00;14.90;;;;;;;4.42;50.65;100249.95;109343;1253;71227;-75
2024/03/08 08:49:20;;;;;;;18.90;13.70;;;;;;;4.49;51.17;100244.53;109407;1254;71319;-76
2024/03/08 08:51:51;;;;;;;14.10;11.40;;;;;;;4.67;50.55;100241.58;109282;1253;70472;-75
2024/03/08 08:54:22;;;;;;;;;;;;;;;4.90;49.68;100238.54;109337;1254;59433;-76
2024/03/08 08:56:50;;;;;;;12.70;9.50;;;;;;;5.13;49.83;100234.80;109449;1254;60784;-75
2024/03/08 08:59:19;;;;;;;18.30;10.10;;;;;;;5.41;49.24;100228.44;109338;1252;72584;-75
2024/03/08 09:01:53;;;;;;;12.10;8.40;;;;;;;5.75;48.79;100223.41;109021;1253;68979;-74
2024/03/08 09:04:21;;;;;;;11.50;8.40;;;;;;;6.09;47.38;100223.27;108935;1253;71608;-75
2024/03/08 09:06:49;;;;;;;11.70;8.30;;;;;;;6.36;46.82;100219.96;109243;1259;59938;-76
2024/03/08 09:09:17;;;;;;;11.30;7.60;;;;;;;6.60;45.22;100216.73;109093;1256;58560;-74
2024/03/08 09:11:46;;;;;;;10.70;7.40;;;;;;;6.71;44.08;100214.55;108637;1252;72140;-74
2024/03/08 09:14:14;;;;;;;11.40;7.80;;;;;;;6.82;43.70;100218.86;108693;1254;68696;-76
2024/03/08 09:16:42;;;;;;;12.90;7.40;;;;;;;7.13;43.48;100218.30;108508;1254;75016;-75
2024/03/08 09:19:10;;;;;;;9.40;7.60;;;;;;;7.62;42.93;100215.58;108707;1253;59728;-74
2024/03/08 09:21:40;;;;;;;9.80;7.80;;;;;;;8.14;41.58;100212.27;109015;1254;58970;-75
2024/03/08 09:24:09;;;;;;;8.30;7.50;;;;;;;8.61;41.39;100210.30;108708;1254;74160;-75
2024/03/08 09:26:37;;;;;;;9.50;7.60;;;;;;;9.19;40.66;100203.16;109020;1254;71602;-76
2024/03/08 09:29:06;;;;;;;10.60;8.60;;;;;;;9.80;39.28;100201.48;108966;1254;73365;-75
2024/03/08 09:31:37;;;;;;;10.70;8.20;;;;;;;10.39;39.01;100200.90;108844;1253;60758;-75
2024/03/08 09:34:08;;;;;;;14.00;10.40;;;;;;;11.00;37.95;100195.38;108805;1254;61993;-74
2024/03/08 09:36:43;;;;;;;12.20;10.00;;;;;;;11.48;36.97;100196.08;108503;1253;72061;-76
2024/03/08 09:39:16;;;;;;;11.20;9.80;;;;;;;11.93;36.99;100190.52;108469;1259;71268;-76
2024/03/08 09:41:47;;;;;;;12.60;10.90;;;;;;;12.64;36.04;100187.46;108704;1254;71662;-77
2024/03/08 09:44:15;;;;;;;14.30;11.80;;;;;;;13.28;35.39;100183.37;108759;1254;59471;-76
2024/03/08 09:46:43;;;;;;;12.90;10.70;;;;;;;13.78;33.74;100184.03;108166;1258;61106;-76
2024/03/08 09:49:11;;;;;;;15.20;10.80;;;;;;;13.87;33.12;100179.60;107901;1254;75194;-76
2024/03/08 09:51:40;;;;;;;17.20;11.10;;;;;;;13.81;32.95;100177.06;108966;1254;69202;-75
2024/03/08 09:54:08;;;;;;;15.60;14.00;;;;;;;13.86;33.43;100176.33;109050;1254;71510;-75
2024/03/08 09:56:47;;;;;;;14.00;12.60;;;;;;;14.19;33.57;100175.23;109149;1254;60721;-76
2024/03/08 09:59:21;;;;;;;12.10;10.40;;;;;;;14.82;32.85;100172.98;109486;1253;58878;-76
2024/03/08 10:01:48;;;;;;;12.90;11.60;;;;;;;15.46;32.09;100168.23;109309;1258;74812;-76
2024/03/08 10:04:17;;;;;;;11.10;10.00;;;;;;;16.09;32.01;100171.66;109051;1254;71112;-75
2024/03/08 10:06:47;;;;;;;11.60;10.40;;;;;;;16.84;30.87;100171.93;109025;1253;73340;-75
2024/03/08 10:09:15;;;;;;;11.60;10.40;;;;;;;17.34;29.57;100165.01;109219;1254;59079;-76
2024/03/08 10:11:43;;;;;;;12.70;11.30;;;;;;;17.20;28.96;100162.65;109235;1253;60325;-77
2024/03/08 10:14:11;;;;;;;18.30;11.40;;;;;;;16.68;28.84;100163.75;109251;1254;72026;-77
2024/03/08 10:16:39;;;;;;;11.50;10.30;;;;;;;16.52;30.01;100162.83;109525;1253;69477;-79
2024/03/08 10:19:07;;;;;;;12.80;11.30;;;;;;;17.09;29.95;100154.83;109159;1254;71515;-78
2024/03/08 10:21:35;;;;;;;12.40;11.10;;;;;;;17.90;29.54;100151.77;109289;1253;60825;-77
2024/03/08 10:24:03;;;;;;;13.80;12.50;;;;;;;18.67;28.58;100147.00;109085;1253;59091;-77
2024/03/08 10:26:31;;;;;;;12.40;11.30;;;;;;;19.22;28.28;100145.76;108649;1259;74842;-78
2024/03/08 10:28:58;;;;;;;12.40;11.10;;;;;;;19.52;26.93;100142.94;108467;1254;72887;-80
2024/03/08 10:31:27;;;;;;;11.30;10.20;;;;;;;19.17;27.01;100137.95;108089;1254;70940;-78
2024/03/08 10:33:54;;;;;;;12.60;11.40;;;;;;;18.72;27.33;100135.68;107908;1254;60536;-78
2024/03/08 10:36:22;;;;;;;10.50;9.00;;;;;;;18.42;27.26;100138.23;108159;1254;61404;-78
2024/03/08 10:38:53;;;;;;;10.90;9.80;;;;;;;18.20;27.56;100136.31;108135;1253;72495;-78
2024/03/08 10:41:26;;;;;;;13.50;11.10;;;;;;;18.51;28.08;100132.95;107756;1259;69251;-77
2024/03/08 10:44:12;;;;;;;12.10;9.70;;;;;;;19.32;27.36;100136.34;107426;1254;74720;-76
2024/03/08 10:46:40;;;;;;;9.50;8.50;;;;;;;19.80;25.44;100131.00;107802;1257;62185;-75
2024/03/08 10:49:11;;;;;;;10.10;8.10;;;;;;;19.39;25.36;100125.98;107725;1254;60843;-78
2024/03/08 10:51:38;;;;;;;9.10;8.20;;;;;;;18.64;25.73;100121.08;108001;1254;73914;-76
2024/03/08 10:54:07;;;;;;;8.10;7.40;;;;;;;18.10;26.29;100120.27;108551;1254;69438;-76
2024/03/08 10:56:34;;;;;;;8.60;7.20;;;;;;;17.94;26.22;100115.82;108634;1255;71610;-76
2024/03/08 10:59:04;;;;;;;9.30;7.60;;;;;;;17.97;26.58;100113.42;108375;1254;60409;-78
2024/03/08 11:01:31;;;;;;;7.10;6.30;;;;;;;18.49;26.36;100113.04;108972;1254;59100;-79
2024/03/08 11:03:59;;;;;;;7.60;6.40;;;;;;;19.13;25.59;100106.29;108566;1257;74072;-79
2024/03/08 11:06:46;;;;;;;7.40;6.70;;;;;;;19.83;25.30;100102.23;107759;1254;70006;-78
2024/03/08 11:09:30;;;;;;;7.10;6.40;;;;;;;20.76;24.84;100100.40;108143;1253;74082;-76
2024/03/08 11:12:29;;;;;;;7.60;6.60;;;;;;;21.76;24.00;100093.90;108919;1254;58880;-78
2024/03/08 11:15:11;;;;;;;10.50;7.10;;;;;;;22.52;23.23;100090.59;108841;1254;58895;-79